Time;durP1;ratioP1;P1;durP2;ratioP2;P2;SDS_P1;SDS_P2;PMS_P1;PMS_P2;Temp;Humidity;BMP_temperature;BMP_pressure;BME280_temperature;BME280_humidity;BME280_pressure;Samples;Min_cycle;Max_cycle;Signal;HPM_P1;HPM_P2
2021/12/01 06:22:07;;;;;;;2.20;1.47;;;;;;;11.16;54.53;97755.78;6872995;28;20221;-87
2021/12/01 06:26:06;;;;;;;5.00;1.70;;;;;;;11.17;54.77;97740.44;6868394;28;20213;-88
2021/12/01 06:29:30;;;;;;;1.50;1.50;;;;;;;11.19;54.63;97735.63;6869076;28;20235;-90
2021/12/01 06:49:51;;;;;;;2.63;1.60;;;;;;;11.04;55.53;97706.41;6770296;29;20200;-83
2021/12/01 06:53:13;;;;;;;1.60;1.50;;;;;;;10.98;55.40;97703.84;6866496;28;20321;-85
2021/12/01 06:56:35;;;;;;;1.73;1.63;;;;;;;11.13;54.39;97645.69;6911538;28;20218;-85
2021/12/01 06:59:56;;;;;;;1.70;1.60;;;;;;;11.51;54.42;97712.63;6929186;28;20210;-87
2021/12/01 07:03:22;;;;;;;1.70;1.60;;;;;;;11.54;53.73;97696.75;6926005;28;20231;-83
2021/12/01 07:06:45;;;;;;;2.17;1.90;;;;;;;11.23;54.18;97707.13;6925787;28;20239;-85
2021/12/01 07:10:09;;;;;;;1.40;1.40;;;;;;;11.41;53.93;97680.00;6922932;28;20207;-84
2021/12/01 07:13:34;;;;;;;1.60;1.50;;;;;;;11.71;52.34;97656.38;6924188;28;20207;-85
2021/12/01 07:16:56;;;;;;;1.70;1.60;;;;;;;11.85;52.29;97663.94;6922758;28;20272;-84
2021/12/01 07:20:17;;;;;;;1.77;1.67;;;;;;;12.02;51.75;97670.22;6924954;28;20203;-84
2021/12/01 07:23:40;;;;;;;1.80;1.70;;;;;;;12.04;51.33;97651.88;6923812;28;20591;-84
2021/12/01 07:27:03;;;;;;;1.60;1.50;;;;;;;11.08;52.31;97585.41;6923823;28;20232;-86
2021/12/01 07:30:24;;;;;;;1.70;1.60;;;;;;;11.34;52.85;97634.25;6928319;28;20199;-84
2021/12/01 07:33:46;;;;;;;1.30;1.20;;;;;;;11.22;53.50;97632.66;6927729;28;20207;-85
2021/12/01 07:37:18;;;;;;;1.33;1.30;;;;;;;11.64;52.71;97626.78;6925883;28;20287;-86
2021/12/01 07:40:41;;;;;;;1.50;1.40;;;;;;;11.71;51.95;97591.56;6926671;28;20354;-85
2021/12/01 07:44:02;;;;;;;2.37;1.50;;;;;;;11.53;52.00;97570.97;6924179;28;20207;-84
2021/12/01 07:47:24;;;;;;;1.10;1.10;;;;;;;11.98;51.38;97603.44;6922871;28;20250;-84
2021/12/01 07:50:46;;;;;;;1.47;1.37;;;;;;;12.25;50.97;97585.50;6919025;28;20223;-85
2021/12/01 07:54:07;;;;;;;1.50;1.40;;;;;;;11.63;51.60;97579.25;6921303;28;20660;-86
2021/12/01 07:57:30;;;;;;;1.50;1.20;;;;;;;11.26;53.02;97577.97;6920670;28;20199;-85
2021/12/01 08:00:52;;;;;;;4.23;1.50;;;;;;;11.30;52.26;97527.88;6915372;28;20219;-85
2021/12/01 08:04:39;;;;;;;1.20;1.20;;;;;;;11.83;51.49;97566.16;6924968;28;20211;-86
2021/12/01 08:08:01;;;;;;;1.47;1.37;;;;;;;12.61;50.25;97555.25;6916731;28;20219;-86
2021/12/01 08:11:23;;;;;;;1.40;1.20;;;;;;;12.68;49.00;97543.22;6923327;28;20822;-82
2021/12/01 08:14:46;;;;;;;1.40;1.40;;;;;;;11.99;50.99;97524.81;6924230;28;20242;-82
2021/12/01 08:18:20;;;;;;;2.00;1.90;;;;;;;12.32;50.78;97534.81;6926214;28;20203;-86
2021/12/01 08:21:46;;;;;;;1.77;1.67;;;;;;;11.80;51.76;97474.81;6922300;28;20239;-80
2021/12/01 08:25:08;;;;;;;3.60;3.30;;;;;;;11.94;51.90;97442.91;6923408;28;20210;-84
2021/12/01 08:28:30;;;;;;;1.87;1.77;;;;;;;12.41;50.90;97507.16;6924656;28;20230;-87
2021/12/01 08:31:53;;;;;;;1.70;1.60;;;;;;;12.40;50.69;97489.28;6929324;28;20220;-86
2021/12/01 08:35:18;;;;;;;3.70;3.00;;;;;;;12.67;50.61;97500.19;6928792;28;20204;-86
2021/12/01 08:38:41;;;;;;;1.70;1.60;;;;;;;12.38;50.57;97486.00;6927216;28;20652;-84
2021/12/01 08:42:02;;;;;;;2.63;1.57;;;;;;;12.83;49.64;97491.22;6925796;28;20566;-83
2021/12/01 08:45:27;;;;;;;1.47;1.47;;;;;;;12.41;50.79;97490.94;6922609;28;20211;-85
2021/12/01 08:48:53;;;;;;;1.40;1.30;;;;;;;12.52;50.76;97472.97;6900661;28;20282;-85
2021/12/01 08:52:16;;;;;;;2.87;1.90;;;;;;;12.54;50.78;97447.31;6922575;28;20230;-86
2021/12/01 08:55:40;;;;;;;1.50;1.50;;;;;;;12.91;49.39;97461.00;6938030;28;20202;-85
2021/12/01 08:59:02;;;;;;;1.60;1.50;;;;;;;12.93;48.72;97458.91;6943080;28;20206;-84
2021/12/01 09:02:24;;;;;;;2.93;1.67;;;;;;;13.34;48.33;97451.00;6924562;28;20226;-83
2021/12/01 09:05:48;;;;;;;1.70;1.60;;;;;;;13.43;48.04;97438.66;6923659;28;20211;-83
2021/12/01 09:09:17;;;;;;;1.60;1.50;;;;;;;13.13;48.53;97384.22;6924873;28;20227;-84
2021/12/01 09:12:41;;;;;;;1.43;1.40;;;;;;;13.14;48.84;97428.31;6923294;28;20304;-86
2021/12/01 09:16:04;;;;;;;1.30;1.30;;;;;;;13.43;48.90;97430.53;6920915;28;20200;-84
2021/12/01 09:19:26;;;;;;;1.93;1.60;;;;;;;13.01;49.49;97412.47;6919791;28;20652;-83
2021/12/01 09:22:49;;;;;;;1.50;1.47;;;;;;;12.78;49.96;97410.00;6919166;28;20246;-84
2021/12/01 09:26:11;;;;;;;1.60;1.50;;;;;;;13.20;49.60;97403.75;6919944;28;20230;-84
2021/12/01 09:29:33;;;;;;;1.20;1.20;;;;;;;13.29;49.25;97387.88;6918389;28;20227;-84
2021/12/01 09:32:55;;;;;;;2.57;1.37;;;;;;;13.22;49.77;97379.16;6918927;28;20228;-83
2021/12/01 09:36:17;;;;;;;1.30;1.30;;;;;;;13.20;49.87;97386.69;6917000;28;20222;-81
2021/12/01 09:39:40;;;;;;;1.67;1.30;;;;;;;12.47;51.18;97379.09;6932979;28;20207;-82
2021/12/01 09:43:01;;;;;;;1.20;1.20;;;;;;;12.81;50.58;97361.63;6913365;28;20246;-82
2021/12/01 09:46:24;;;;;;;1.63;1.10;;;;;;;12.75;50.58;97362.66;6903339;28;20214;-83
2021/12/01 09:49:47;;;;;;;1.00;1.00;;;;;;;12.93;50.26;97350.69;6914417;28;20228;-84
2021/12/01 09:53:11;;;;;;;0.97;0.97;;;;;;;12.41;51.80;97344.16;6912689;28;20227;-84
2021/12/01 09:56:34;;;;;;;1.03;1.03;;;;;;;13.13;49.75;97327.38;6916777;28;20211;-85
2021/12/01 09:59:56;;;;;;;1.17;1.17;;;;;;;12.64;50.34;97295.22;6916973;28;20196;-85
2021/12/01 10:03:18;;;;;;;0.90;0.90;;;;;;;13.29;49.07;97293.94;6916862;28;20684;-84
2021/12/01 10:06:39;;;;;;;1.10;1.10;;;;;;;12.53;51.52;97301.59;6915551;28;20207;-83
2021/12/01 10:10:08;;;;;;;1.10;1.10;;;;;;;12.99;50.30;97282.88;6915177;28;20595;-82
2021/12/01 10:13:33;;;;;;;1.20;1.10;;;;;;;12.73;51.09;97289.09;6913090;28;20231;-83
2021/12/01 10:16:55;;;;;;;1.20;1.20;;;;;;;12.98;51.25;97283.16;6913559;28;20199;-82
2021/12/01 10:20:19;;;;;;;1.73;1.03;;;;;;;12.90;51.16;97264.63;6916388;28;20474;-85
2021/12/01 10:23:47;;;;;;;0.90;0.90;;;;;;;12.87;51.38;97267.88;6920719;28;20223;-83
2021/12/01 10:27:11;;;;;;;1.20;1.10;;;;;;;13.36;50.18;97235.03;6894573;28;20256;-86
2021/12/01 10:30:40;;;;;;;2.97;1.43;;;;;;;13.61;50.54;97274.97;6910085;28;20802;-86
2021/12/01 10:34:19;;;;;;;1.30;1.20;;;;;;;13.34;50.37;97258.81;6917890;28;20204;-84
2021/12/01 10:37:41;;;;;;;1.17;1.10;;;;;;;14.03;50.67;97249.47;6921991;28;20215;-82
2021/12/01 10:41:05;;;;;;;1.20;0.83;;;;;;;13.44;49.83;97187.66;6921393;28;20714;-83
2021/12/01 10:44:26;;;;;;;1.10;1.10;;;;;;;14.28;48.32;97225.19;6921504;28;20200;-82
2021/12/01 10:47:49;;;;;;;1.20;1.10;;;;;;;14.19;47.74;97197.00;6922267;28;20219;-82
2021/12/01 10:51:13;;;;;;;2.83;2.47;;;;;;;14.46;47.61;97216.56;6921400;28;20219;-82
2021/12/01 10:54:35;;;;;;;2.60;2.20;;;;;;;14.77;47.05;97203.88;6910521;28;20673;-85
2021/12/01 10:57:59;;;;;;;1.10;1.10;;;;;;;14.29;48.06;97186.16;6923641;28;20207;-80
2021/12/01 11:01:22;;;;;;;2.00;1.30;;;;;;;14.58;47.57;97181.09;6907271;28;20322;-80
2021/12/01 11:04:47;;;;;;;1.33;1.33;;;;;;;13.90;48.71;97197.66;6917834;28;20664;-82
2021/12/01 11:08:14;;;;;;;1.40;1.30;;;;;;;14.18;48.42;97170.13;6922819;28;20219;-83
2021/12/01 11:11:41;;;;;;;1.27;1.23;;;;;;;14.75;47.69;97182.44;6922438;28;20220;-79
2021/12/01 11:15:16;;;;;;;1.47;1.40;;;;;;;14.50;48.06;97184.31;6918985;28;20236;-82
2021/12/01 11:18:40;;;;;;;1.67;1.50;;;;;;;14.93;46.81;97171.03;6920252;28;20199;-81
2021/12/01 11:22:28;;;;;;;1.60;1.50;;;;;;;14.05;48.97;97147.03;6920463;28;20717;-80
2021/12/01 11:25:52;;;;;;;1.47;1.37;;;;;;;14.24;49.34;97144.69;6914999;28;20196;-82
2021/12/01 11:29:15;;;;;;;1.43;1.40;;;;;;;14.72;48.73;97122.47;6921406;28;20223;-84
2021/12/01 11:32:37;;;;;;;2.30;1.77;;;;;;;13.99;50.74;97125.63;6919622;28;20245;-81
2021/12/01 11:36:01;;;;;;;0.90;0.90;;;;;;;14.54;49.65;97117.59;6919297;28;20204;-83
2021/12/01 11:39:30;;;;;;;1.00;1.00;;;;;;;13.53;52.04;97100.31;6913448;28;20209;-85
2021/12/01 11:42:51;;;;;;;1.17;1.17;;;;;;;14.17;50.59;97104.25;6919280;28;20216;-85
2021/12/01 11:46:13;;;;;;;1.07;1.07;;;;;;;13.97;51.25;97092.56;6918228;28;20208;-82
2021/12/01 11:49:35;;;;;;;1.00;1.00;;;;;;;14.15;49.84;97108.34;6917988;28;20275;-81
2021/12/01 11:53:08;;;;;;;1.40;1.30;;;;;;;13.67;51.60;97070.81;6918605;28;20274;-81
2021/12/01 11:56:33;;;;;;;1.00;1.00;;;;;;;14.48;50.21;97080.72;6916070;28;20807;-81
2021/12/01 11:59:55;;;;;;;1.00;1.00;;;;;;;14.54;49.40;97075.03;6916808;28;20196;-81
2021/12/01 12:03:26;;;;;;;1.20;1.20;;;;;;;13.76;51.08;97045.66;6913757;28;20308;-81
2021/12/01 12:06:52;;;;;;;1.20;1.20;;;;;;;13.97;51.21;97058.16;6916380;28;20579;-81
2021/12/01 12:10:16;;;;;;;3.57;1.13;;;;;;;14.63;50.22;97057.13;6914533;28;20223;-81
2021/12/01 12:14:04;;;;;;;1.10;1.10;;;;;;;14.08;50.50;97057.09;6891423;28;20211;-81
2021/12/01 12:17:34;;;;;;;1.00;1.00;;;;;;;14.43;50.28;97059.03;6913396;28;20208;-81
2021/12/01 12:21:14;;;;;;;0.83;0.83;;;;;;;14.31;50.57;97040.34;6916283;28;20219;-81
2021/12/01 12:24:43;;;;;;;1.30;1.30;;;;;;;13.77;52.59;97031.06;6916343;28;20215;-81
2021/12/01 12:28:24;;;;;;;1.03;1.03;;;;;;;14.20;51.31;97014.31;6916638;28;20218;-81
2021/12/01 12:31:48;;;;;;;1.07;1.07;;;;;;;14.39;50.45;96995.63;6914347;28;20223;-81
2021/12/01 12:35:12;;;;;;;1.10;1.10;;;;;;;14.17;51.03;97008.59;6916286;28;20212;-81
2021/12/01 12:38:33;;;;;;;1.10;1.00;;;;;;;14.44;50.79;96972.00;6915785;28;20250;-81
2021/12/01 12:42:09;;;;;;;1.50;1.40;;;;;;;14.66;50.38;96998.81;6915441;28;20243;-81
2021/12/01 12:45:31;;;;;;;1.33;1.33;;;;;;;13.66;52.59;96988.78;6913749;28;20203;-81
2021/12/01 12:48:55;;;;;;;6.20;1.20;;;;;;;14.39;50.99;96969.28;6913874;28;20220;-81
2021/12/01 12:52:41;;;;;;;1.00;1.00;;;;;;;14.72;50.33;96979.53;6915791;28;20220;-83
2021/12/01 12:56:23;;;;;;;1.00;1.00;;;;;;;14.78;50.07;96977.63;6898008;28;20201;-84
2021/12/01 12:59:45;;;;;;;1.23;1.13;;;;;;;14.36;51.21;96971.75;6917243;28;20206;-83
2021/12/01 13:03:31;;;;;;;1.07;1.07;;;;;;;14.51;51.94;96961.69;6917153;28;20232;-81
2021/12/01 13:06:54;;;;;;;1.13;1.13;;;;;;;13.84;53.52;96963.88;6914612;28;20192;-81
2021/12/01 13:10:19;;;;;;;1.37;1.27;;;;;;;14.18;52.63;96959.53;6893039;28;20228;-81
2021/12/01 13:13:43;;;;;;;2.00;1.40;;;;;;;13.92;53.73;96951.69;6901235;28;20211;-81
2021/12/01 13:17:04;;;;;;;2.10;1.90;;;;;;;13.74;54.10;96939.50;6914721;28;20215;-81
2021/12/01 13:20:29;;;;;;;1.23;1.23;;;;;;;13.56;54.80;96918.34;6915156;28;20203;-81
2021/12/01 13:23:53;;;;;;;1.40;1.30;;;;;;;13.06;55.91;96910.16;6914374;28;20254;-81
2021/12/01 13:27:14;;;;;;;3.50;1.40;;;;;;;12.51;56.90;96884.78;6914607;28;20207;-81
2021/12/01 13:30:37;;;;;;;1.20;1.20;;;;;;;12.91;56.39;96901.13;6914005;28;20608;-82
2021/12/01 13:34:01;;;;;;;1.20;1.20;;;;;;;13.22;55.85;96916.41;6914848;28;20215;-82
2021/12/01 13:37:23;;;;;;;1.10;1.10;;;;;;;13.40;55.08;96916.69;6914171;28;20211;-81
2021/12/01 13:40:46;;;;;;;1.30;1.20;;;;;;;12.99;55.67;96873.63;6914281;28;20222;-81
2021/12/01 13:44:11;;;;;;;1.20;1.20;;;;;;;13.69;54.81;96889.94;6914287;28;20196;-81
2021/12/01 13:47:34;;;;;;;2.90;1.20;;;;;;;13.42;55.05;96865.84;6914062;28;20560;-82
2021/12/01 13:51:08;;;;;;;2.60;2.40;;;;;;;13.54;54.12;96852.84;6914069;28;20706;-83
2021/12/01 13:54:30;;;;;;;1.00;1.00;;;;;;;13.59;54.66;96887.22;6915828;28;20727;-80
2021/12/01 13:57:56;;;;;;;1.30;1.30;;;;;;;13.71;54.21;96894.00;6917483;28;20218;-82
2021/12/01 14:01:19;;;;;;;1.10;1.10;;;;;;;13.28;55.17;96858.50;6922176;28;20699;-82
2021/12/01 14:04:41;;;;;;;1.10;1.10;;;;;;;13.77;54.22;96887.50;6922791;28;20675;-80
2021/12/01 14:08:11;;;;;;;2.97;1.30;;;;;;;13.68;54.42;96882.91;6922545;28;20294;-79
2021/12/01 14:11:49;;;;;;;1.80;1.70;;;;;;;14.01;53.56;96876.91;6924035;28;20223;-81
2021/12/01 14:15:12;;;;;;;1.10;1.10;;;;;;;13.63;54.60;96861.25;6921735;28;20204;-81
2021/12/01 14:18:34;;;;;;;1.20;1.20;;;;;;;13.27;55.58;96862.31;6922832;28;20220;-83
2021/12/01 14:21:57;;;;;;;1.20;1.10;;;;;;;13.37;55.48;96857.72;6903365;28;20220;-83
2021/12/01 14:25:20;;;;;;;1.40;1.23;;;;;;;12.81;55.95;96755.88;6917938;28;20679;-83
2021/12/01 14:28:44;;;;;;;1.20;1.20;;;;;;;13.60;55.39;96872.59;6917815;28;20571;-83
2021/12/01 14:32:09;;;;;;;1.33;1.23;;;;;;;13.91;55.13;96868.78;6914466;28;20220;-82
2021/12/01 14:35:31;;;;;;;2.20;1.17;;;;;;;13.18;55.59;96858.50;6917890;28;20204;-83
2021/12/01 14:38:52;;;;;;;1.03;1.00;;;;;;;13.43;55.39;96867.47;6919659;28;20207;-82
2021/12/01 14:42:14;;;;;;;1.37;1.30;;;;;;;13.35;56.34;96868.00;6922322;28;20258;-81
2021/12/01 14:45:36;;;;;;;1.00;1.00;;;;;;;13.14;56.28;96855.50;6920747;28;20204;-82
2021/12/01 14:49:11;;;;;;;1.47;1.37;;;;;;;13.56;54.75;96864.22;6912062;28;20224;-83
2021/12/01 14:52:36;;;;;;;1.03;1.03;;;;;;;13.39;55.19;96877.19;6917806;28;20232;-81
2021/12/01 14:55:58;;;;;;;1.27;1.27;;;;;;;13.00;56.21;96872.53;6919365;28;20192;-84
2021/12/01 14:59:20;;;;;;;1.37;1.37;;;;;;;13.52;55.15;96857.69;6921885;28;20207;-80
2021/12/01 15:02:44;;;;;;;1.30;1.20;;;;;;;12.69;56.09;96803.19;6921954;28;20231;-79
2021/12/01 15:06:07;;;;;;;1.10;1.10;;;;;;;13.68;54.99;96870.16;6919956;28;20204;-85
2021/12/01 15:09:41;;;;;;;1.00;1.00;;;;;;;13.42;55.28;96873.97;6919975;28;20941;-83
2021/12/01 15:13:08;;;;;;;1.43;1.33;;;;;;;13.52;55.34;96878.56;6921081;28;20738;-80
2021/12/01 15:16:33;;;;;;;1.33;1.23;;;;;;;13.25;55.14;96804.91;6919527;28;20216;-82
2021/12/01 15:20:07;;;;;;;1.20;1.20;;;;;;;13.74;54.64;96854.75;6920202;28;20196;-82
2021/12/01 15:23:46;;;;;;;1.30;1.30;;;;;;;13.79;54.10;96844.69;6917930;28;20612;-81
2021/12/01 15:27:08;;;;;;;2.00;1.40;;;;;;;13.66;54.98;96855.25;6919686;28;20211;-82
2021/12/01 15:30:31;;;;;;;1.90;1.80;;;;;;;13.12;56.08;96875.81;6918980;28;20230;-85
2021/12/01 15:33:54;;;;;;;1.40;1.30;;;;;;;13.10;56.41;96826.56;6916738;28;20199;-83
2021/12/01 15:37:16;;;;;;;1.37;1.30;;;;;;;13.82;54.41;96827.09;6917739;28;20215;-82
2021/12/01 15:40:39;;;;;;;2.03;1.30;;;;;;;13.64;55.26;96869.06;6923094;28;20231;-80
2021/12/01 15:44:01;;;;;;;1.30;1.30;;;;;;;13.31;55.78;96874.19;6922461;28;20219;-82
2021/12/01 15:47:23;;;;;;;2.00;1.43;;;;;;;13.59;55.45;96871.81;6923176;28;20690;-82
2021/12/01 15:50:45;;;;;;;2.90;1.30;;;;;;;13.61;54.57;96874.22;6922028;28;20236;-82
2021/12/01 15:54:07;;;;;;;2.43;2.23;;;;;;;13.48;54.86;96859.34;6917487;28;20215;-83
2021/12/01 15:57:31;;;;;;;1.90;1.80;;;;;;;13.02;56.34;96892.00;6919490;28;20207;-82
2021/12/01 16:00:54;;;;;;;3.60;1.63;;;;;;;13.43;55.38;96881.00;6922086;28;20230;-82
2021/12/01 16:04:19;;;;;;;2.87;2.17;;;;;;;13.56;54.31;96855.25;6918684;28;20204;-82
2021/12/01 16:07:40;;;;;;;1.80;1.70;;;;;;;13.55;54.51;96870.72;6923288;28;20682;-82
2021/12/01 16:11:02;;;;;;;1.53;1.40;;;;;;;13.68;53.70;96872.06;6919736;28;20226;-82
2021/12/01 16:14:25;;;;;;;1.63;1.50;;;;;;;13.19;54.60;96863.66;6917049;28;20208;-82
2021/12/01 16:17:47;;;;;;;1.90;1.80;;;;;;;13.15;54.17;96840.09;6923912;28;20208;-81
2021/12/01 16:21:09;;;;;;;1.63;1.60;;;;;;;13.79;53.14;96870.97;6925181;28;20223;-85
2021/12/01 16:24:30;;;;;;;1.50;1.40;;;;;;;13.04;54.48;96866.31;6921349;28;20697;-84
2021/12/01 16:27:52;;;;;;;1.83;1.70;;;;;;;13.37;54.12;96871.25;6917976;28;20197;-83
2021/12/01 16:31:15;;;;;;;1.30;1.30;;;;;;;13.16;54.45;96868.78;6922964;28;20314;-81
2021/12/01 16:34:37;;;;;;;1.30;1.30;;;;;;;13.39;54.27;96870.97;6923340;28;20200;-81
2021/12/01 16:38:00;;;;;;;2.33;1.23;;;;;;;13.44;54.02;96871.78;6919037;28;20214;-84
2021/12/01 16:41:22;;;;;;;1.17;1.17;;;;;;;13.16;54.87;96871.50;6918845;28;20230;-84
2021/12/01 16:44:44;;;;;;;1.30;1.30;;;;;;;13.14;54.60;96863.63;6919357;28;20687;-84
2021/12/01 16:48:07;;;;;;;1.50;1.47;;;;;;;13.59;53.90;96877.22;6918952;28;20211;-84
2021/12/01 16:51:29;;;;;;;1.33;1.33;;;;;;;13.75;53.14;96878.03;6917300;28;20231;-86
2021/12/01 16:54:51;;;;;;;1.37;1.37;;;;;;;13.40;53.42;96876.09;6915258;28;20215;-84
2021/12/01 16:58:15;;;;;;;1.40;1.40;;;;;;;13.00;54.53;96875.22;6915806;28;20203;-85
2021/12/01 17:01:37;;;;;;;1.37;1.37;;;;;;;13.09;53.97;96877.16;6915735;28;20216;-85
2021/12/01 17:05:04;;;;;;;1.30;1.20;;;;;;;13.40;53.14;96876.09;6916032;28;20731;-85
2021/12/01 17:08:40;;;;;;;1.47;1.37;;;;;;;13.32;53.06;96875.81;6915547;28;20212;-86
2021/12/01 17:12:02;;;;;;;1.33;1.30;;;;;;;13.22;53.11;96894.75;6916768;28;20241;-85
2021/12/01 17:15:24;;;;;;;1.10;1.10;;;;;;;13.31;52.54;96903.97;6915602;28;20207;-85
2021/12/01 17:18:46;;;;;;;1.30;1.30;;;;;;;13.47;51.48;96914.56;6917014;28;20668;-85
2021/12/01 17:22:10;;;;;;;1.60;1.50;;;;;;;13.39;52.03;96927.81;6916754;28;20233;-85
2021/12/01 17:25:32;;;;;;;1.53;1.43;;;;;;;12.60;52.18;96839.91;6915742;28;20214;-86
2021/12/01 17:28:54;;;;;;;1.70;1.60;;;;;;;13.07;51.69;96876.59;6915916;28;20208;-84
2021/12/01 17:32:17;;;;;;;1.20;1.20;;;;;;;12.61;51.66;96855.88;6917754;28;20235;-83
2021/12/01 17:35:39;;;;;;;2.23;1.70;;;;;;;12.96;51.96;96930.94;6917057;28;20219;-84
2021/12/01 17:39:02;;;;;;;1.97;1.63;;;;;;;12.52;53.48;96941.25;6916317;28;20203;-85
2021/12/01 17:42:27;;;;;;;2.30;1.93;;;;;;;13.04;51.91;96922.31;6920279;28;20695;-85
2021/12/01 17:45:50;;;;;;;1.17;1.17;;;;;;;12.63;51.29;96894.25;6937923;28;20694;-83
2021/12/01 17:49:12;;;;;;;1.60;1.43;;;;;;;13.21;51.40;96947.25;6916964;28;20236;-82
2021/12/01 17:52:34;;;;;;;1.50;1.40;;;;;;;13.03;51.36;96956.66;6917917;28;20231;-83
2021/12/01 17:55:57;;;;;;;1.50;1.40;;;;;;;12.55;52.41;96951.53;6917160;28;20290;-85
2021/12/01 17:59:20;;;;;;;1.70;1.60;;;;;;;12.72;52.54;96962.16;6916025;28;20543;-81
2021/12/01 18:02:42;;;;;;;1.50;1.40;;;;;;;12.93;51.79;96975.50;6913498;28;20222;-84
2021/12/01 18:06:04;;;;;;;3.20;1.63;;;;;;;12.31;52.97;96950.34;6914152;28;20672;-82
2021/12/01 18:09:26;;;;;;;3.17;1.40;;;;;;;12.48;52.80;96980.69;6914716;28;20240;-84
2021/12/01 18:12:51;;;;;;;1.40;1.30;;;;;;;13.00;51.63;96994.25;6916731;28;20223;-82
2021/12/01 18:16:17;;;;;;;1.20;1.20;;;;;;;13.30;51.15;96992.47;6915182;28;20208;-83
2021/12/01 18:19:38;;;;;;;1.60;1.50;;;;;;;13.04;51.76;96993.44;6914818;28;20214;-85
2021/12/01 18:23:00;;;;;;;1.80;1.70;;;;;;;12.71;52.77;97014.63;6913994;28;20232;-84
2021/12/01 18:26:21;;;;;;;1.33;1.33;;;;;;;12.95;52.00;96997.75;6913233;28;20663;-85
2021/12/01 18:29:44;;;;;;;1.60;1.50;;;;;;;12.93;51.52;96964.69;6914036;28;20227;-84
2021/12/01 18:33:07;;;;;;;1.60;1.50;;;;;;;12.98;51.80;97004.53;6914662;28;20234;-83
2021/12/01 18:36:29;;;;;;;1.80;1.60;;;;;;;12.82;52.31;97025.25;6914286;28;20214;-87
2021/12/01 18:39:50;;;;;;;1.53;1.43;;;;;;;13.03;51.48;97015.34;6913897;28;20204;-84
2021/12/01 18:43:12;;;;;;;1.20;1.10;;;;;;;12.85;51.58;97011.19;6922269;28;20228;-84
2021/12/01 18:46:36;;;;;;;1.40;1.40;;;;;;;12.95;52.50;97037.47;6930493;28;20223;-83
2021/12/01 18:49:58;;;;;;;1.50;1.40;;;;;;;12.89;51.52;97025.00;6916789;28;20277;-84
2021/12/01 18:53:20;;;;;;;1.40;1.30;;;;;;;13.14;50.84;97017.03;6918388;28;20689;-84
2021/12/01 18:56:41;;;;;;;1.30;1.30;;;;;;;12.83;51.68;97017.94;6918432;28;20207;-85
2021/12/01 19:00:06;;;;;;;2.17;1.97;;;;;;;12.45;53.12;97058.78;6919455;28;20208;-84
2021/12/01 19:03:31;;;;;;;1.70;1.60;;;;;;;13.03;51.56;97056.75;6917682;28;20231;-84
2021/12/01 19:06:52;;;;;;;3.10;2.23;;;;;;;12.83;51.44;97020.63;6919017;28;20306;-86
2021/12/01 19:10:17;;;;;;;2.00;1.90;;;;;;;13.19;51.08;97060.34;6917977;28;20231;-85
2021/12/01 19:13:40;;;;;;;2.20;2.10;;;;;;;13.03;51.90;97058.63;6918088;28;20200;-84
2021/12/01 19:17:03;;;;;;;2.10;1.90;;;;;;;13.08;51.26;97061.38;6919204;28;20196;-85
2021/12/01 19:20:28;;;;;;;1.90;1.80;;;;;;;13.19;50.84;97044.94;6918892;28;20196;-84
2021/12/01 19:23:53;;;;;;;2.10;1.90;;;;;;;13.20;51.25;97081.72;6918526;28;20563;-85
2021/12/01 19:27:16;;;;;;;3.37;3.17;;;;;;;13.24;51.10;97073.91;6919417;28;20298;-84
2021/12/01 19:30:42;;;;;;;1.57;1.50;;;;;;;13.20;50.74;97067.38;6919147;28;20683;-84
2021/12/01 19:34:05;;;;;;;1.73;1.63;;;;;;;13.05;51.14;97043.78;6907632;28;20201;-83
2021/12/01 19:37:28;;;;;;;1.27;1.27;;;;;;;13.35;50.84;97079.13;6889906;28;20208;-83
2021/12/01 19:40:50;;;;;;;1.40;1.40;;;;;;;12.89;51.47;97069.09;6915833;28;20215;-83
2021/12/01 19:44:14;;;;;;;1.40;1.40;;;;;;;13.27;50.76;97086.91;6917532;28;20214;-83
2021/12/01 19:47:39;;;;;;;1.60;1.50;;;;;;;13.31;50.67;97079.88;6918134;28;20218;-83
2021/12/01 19:51:01;;;;;;;1.70;1.60;;;;;;;13.25;51.21;97089.88;6918228;28;20568;-83
2021/12/01 19:54:25;;;;;;;1.37;1.30;;;;;;;13.43;50.67;97094.00;6915634;28;20207;-83
2021/12/01 19:57:47;;;;;;;1.70;1.60;;;;;;;13.16;51.33;97107.69;6916750;28;20307;-83
2021/12/01 20:01:11;;;;;;;1.80;1.70;;;;;;;13.34;51.50;97093.69;6915889;28;20220;-83
2021/12/01 20:04:33;;;;;;;1.50;1.40;;;;;;;13.05;51.66;97099.78;6915802;28;20207;-84
2021/12/01 20:07:55;;;;;;;1.30;1.30;;;;;;;12.94;52.05;97098.06;6915801;28;20214;-84
2021/12/01 20:11:19;;;;;;;1.40;1.40;;;;;;;12.95;52.36;97107.78;6916254;28;20707;-83
2021/12/01 20:14:43;;;;;;;1.67;1.57;;;;;;;12.64;53.21;97087.03;6916779;28;20301;-85
2021/12/01 20:18:05;;;;;;;1.60;1.50;;;;;;;13.01;52.35;97080.56;6916852;28;20214;-83
2021/12/01 20:21:27;;;;;;;1.97;1.80;;;;;;;12.84;52.62;97079.88;6911201;28;20692;-83
2021/12/01 20:24:50;;;;;;;2.13;1.93;;;;;;;13.20;52.16;97084.44;6916340;28;20215;-83
2021/12/01 20:28:16;;;;;;;2.23;2.03;;;;;;;13.34;51.92;97071.25;6917277;28;20290;-85
2021/12/01 20:31:40;;;;;;;2.13;1.93;;;;;;;13.44;51.18;97084.81;6916125;28;20227;-84
2021/12/01 20:35:03;;;;;;;1.70;1.60;;;;;;;12.95;51.64;97091.56;6916209;28;20204;-84
2021/12/01 20:38:25;;;;;;;1.70;1.60;;;;;;;12.89;51.57;97052.88;6915382;28;20207;-84
2021/12/01 20:42:05;;;;;;;1.57;1.50;;;;;;;12.92;51.76;97068.56;6914391;28;20935;-86
2021/12/01 20:45:33;;;;;;;1.90;1.80;;;;;;;12.99;51.82;97088.09;6838494;28;20260;-85
2021/12/01 20:53:02;;;;;;;1.60;1.50;;;;;;;12.98;51.98;97089.19;6838220;28;20236;-85
2021/12/01 20:56:40;;;;;;;1.80;1.70;;;;;;;12.04;53.40;97046.03;6846329;28;20208;-84
2021/12/01 21:01:22;;;;;;;2.03;1.77;;;;;;;12.95;51.30;97092.44;6846239;28;20216;-84
2021/12/01 21:04:01;;;;;;;1.83;1.73;;;;;;;12.46;52.53;97095.56;6830400;29;20214;-85
2021/12/01 21:07:23;;;;;;;1.63;1.53;;;;;;;12.35;52.38;97080.31;6831412;28;20237;-85
2021/12/01 21:10:49;;;;;;;1.70;1.60;;;;;;;12.39;52.76;97106.56;6830583;29;20229;-85
2021/12/01 21:14:12;;;;;;;1.80;1.70;;;;;;;12.35;53.17;97100.06;6829826;29;20342;-84
2021/12/01 21:17:36;;;;;;;1.50;1.40;;;;;;;12.63;51.74;97102.44;6831096;29;20209;-85
2021/12/01 21:20:59;;;;;;;1.80;1.70;;;;;;;12.33;52.74;97104.09;6844612;28;20437;-85
2021/12/01 21:24:22;;;;;;;1.83;1.57;;;;;;;12.34;52.34;97111.91;6915862;28;20215;-85
2021/12/01 21:27:45;;;;;;;3.77;1.93;;;;;;;12.25;52.15;97089.16;6916955;28;20422;-85
2021/12/01 21:31:11;;;;;;;1.70;1.60;;;;;;;12.18;52.89;97123.69;6916347;28;20226;-85
2021/12/01 21:34:38;;;;;;;1.67;1.57;;;;;;;12.50;52.02;97126.38;6913814;28;20216;-85
2021/12/01 21:38:01;;;;;;;1.70;1.60;;;;;;;11.85;53.00;97069.03;6916097;28;20207;-86
2021/12/01 21:41:23;;;;;;;1.73;1.67;;;;;;;11.73;53.93;97128.59;6904906;28;20597;-84
2021/12/01 21:44:46;;;;;;;1.70;1.60;;;;;;;12.06;52.65;97117.63;6915811;28;20211;-85
2021/12/01 21:48:12;;;;;;;2.00;1.90;;;;;;;11.89;52.84;97118.78;6916320;28;20215;-85
2021/12/01 21:51:36;;;;;;;1.70;1.60;;;;;;;12.08;52.61;97128.97;6911046;28;20271;-84
2021/12/01 21:54:59;;;;;;;1.70;1.47;;;;;;;12.03;52.77;97136.22;6913869;28;20208;-86
2021/12/01 21:58:21;;;;;;;1.67;1.57;;;;;;;11.83;53.40;97114.41;6915560;28;20203;-85
